createdAt,value
2023-03-11T00:02:09.253Z,51.54
2023-03-11T00:04:40.879Z,52.00
2023-03-11T00:07:12.617Z,51.70
2023-03-11T00:09:43.320Z,51.02
2023-03-11T00:12:13.639Z,50.74
2023-03-11T00:14:44.110Z,50.37
2023-03-11T00:17:15.037Z,50.01
2023-03-11T00:19:45.888Z,50.03
2023-03-11T00:22:16.690Z,49.88
2023-03-11T00:24:47.096Z,49.70
2023-03-11T00:27:20.915Z,49.85
2023-03-11T00:29:51.424Z,48.80
2023-03-11T00:32:22.714Z,48.47
2023-03-11T00:34:53.236Z,48.53
2023-03-11T00:37:23.674Z,48.43
2023-03-11T00:39:53.935Z,48.01
2023-03-11T00:42:24.835Z,48.24
2023-03-11T00:44:55.190Z,48.31
2023-03-11T00:47:25.987Z,48.32
2023-03-11T00:49:56.922Z,47.82
2023-03-11T00:52:27.766Z,48.01
2023-03-11T00:54:59.683Z,47.92
2023-03-11T00:57:30.408Z,47.45
2023-03-11T01:00:01.522Z,47.88
2023-03-11T01:02:32.686Z,48.02
2023-03-11T01:05:03.378Z,47.60
2023-03-11T01:07:34.725Z,47.75
2023-03-11T01:10:08.887Z,47.43
2023-03-11T01:12:39.643Z,47.30
2023-03-11T01:15:13.509Z,47.82
2023-03-11T01:17:44.064Z,47.59
2023-03-11T01:20:15.649Z,46.91
2023-03-11T01:22:56.608Z,46.96
2023-03-11T01:25:27.601Z,46.99
2023-03-11T01:27:59.555Z,47.21
2023-03-11T01:30:30.837Z,47.06
2023-03-11T01:33:01.923Z,46.81
2023-03-11T01:35:33.450Z,46.64
2023-03-11T01:38:04.171Z,47.02
2023-03-11T01:40:41.577Z,47.22
2023-03-11T01:43:41.963Z,46.48
2023-03-11T01:46:25.819Z,46.75
2023-03-11T01:48:58.762Z,46.47
2023-03-11T01:51:44.119Z,47.00
2023-03-11T01:54:20.132Z,46.55
2023-03-11T01:56:51.668Z,46.69
2023-03-11T01:59:28.836Z,46.36
2023-03-11T02:02:11.133Z,46.09
2023-03-11T02:04:44.104Z,46.02
2023-03-11T02:07:20.551Z,45.67
2023-03-11T02:09:53.982Z,46.24
2023-03-11T02:12:34.916Z,46.18
2023-03-11T02:15:13.673Z,45.46
2023-03-11T02:17:48.371Z,45.09
2023-03-11T02:20:54.165Z,45.53
2023-03-11T02:23:28.160Z,45.96
2023-03-11T02:26:28.128Z,45.64
2023-03-11T02:28:59.588Z,45.73
2023-03-11T02:31:30.895Z,45.79
2023-03-11T02:34:03.584Z,45.64
2023-03-11T02:36:43.202Z,45.59
2023-03-11T02:39:17.308Z,45.38
2023-03-11T02:41:48.556Z,45.65
2023-03-11T02:44:19.895Z,45.09
2023-03-11T02:46:50.264Z,45.10
2023-03-11T02:49:22.458Z,44.39
2023-03-11T02:51:56.221Z,44.25
2023-03-11T02:54:27.601Z,44.05
2023-03-11T02:56:59.171Z,44.59
2023-03-11T02:59:31.312Z,43.94
2023-03-11T03:02:04.896Z,43.72
2023-03-11T03:04:45.536Z,43.32
2023-03-11T03:07:17.474Z,43.13
2023-03-11T03:09:48.661Z,43.49
2023-03-11T03:12:22.376Z,43.14
2023-03-11T03:14:53.089Z,43.49
2023-03-11T03:17:25.526Z,43.00
2023-03-11T03:19:56.429Z,42.49
2023-03-11T03:22:28.657Z,42.99
2023-03-11T03:25:00.721Z,42.52
2023-03-11T03:27:33.393Z,42.70
2023-03-11T03:30:09.580Z,42.60
2023-03-11T03:32:40.347Z,42.69
2023-03-11T03:35:14.884Z,42.47
2023-03-11T03:38:17.623Z,43.03
2023-03-11T03:40:48.875Z,42.98
2023-03-11T03:43:22.883Z,42.61
2023-03-11T03:46:01.798Z,42.46
2023-03-11T03:48:36.432Z,42.35
2023-03-11T03:51:12.018Z,42.60
2023-03-11T03:53:50.410Z,42.12
2023-03-11T03:56:21.266Z,42.59
2023-03-11T03:58:52.221Z,42.28
2023-03-11T04:01:23.584Z,42.48
2023-03-11T04:03:57.017Z,42.20
2023-03-11T04:06:29.681Z,42.28
2023-03-11T04:09:05.508Z,42.43
2023-03-11T04:11:47.337Z,42.55
2023-03-11T04:14:23.099Z,42.48
2023-03-11T04:16:59.262Z,42.27
2023-03-11T04:19:31.244Z,41.87
2023-03-11T04:22:02.397Z,42.35
2023-03-11T04:24:33.151Z,41.72
2023-03-11T04:27:04.057Z,41.24
2023-03-11T04:29:36.900Z,41.14
2023-03-11T04:32:08.150Z,40.91
2023-03-11T04:34:39.494Z,41.38
2023-03-11T04:37:10.221Z,41.04
2023-03-11T04:39:41.087Z,40.43
2023-03-11T04:42:14.923Z,40.55
2023-03-11T04:44:47.077Z,40.29
2023-03-11T04:47:19.453Z,40.86
2023-03-11T04:49:50.107Z,39.98
2023-03-11T04:52:21.136Z,39.96
2023-03-11T04:54:52.106Z,40.22
2023-03-11T04:57:23.507Z,40.31
2023-03-11T04:59:54.041Z,39.66
2023-03-11T05:02:25.337Z,39.21
2023-03-11T05:05:04.456Z,38.60
2023-03-11T05:07:35.835Z,38.62
2023-03-11T05:10:07.707Z,38.80
2023-03-11T05:12:41.040Z,38.87
2023-03-11T05:15:12.087Z,38.56
2023-03-11T05:17:43.024Z,38.63
2023-03-11T05:20:15.765Z,38.47
2023-03-11T05:22:47.070Z,38.53
2023-03-11T05:25:17.698Z,38.17
2023-03-11T05:27:48.687Z,38.16
2023-03-11T05:30:21.848Z,38.54
2023-03-11T05:32:53.211Z,39.27
2023-03-11T05:35:24.109Z,39.00
2023-03-11T05:37:55.868Z,39.45
2023-03-11T05:40:31.753Z,39.11
2023-03-11T05:43:02.942Z,39.92
2023-03-11T05:45:37.923Z,39.96
2023-03-11T05:48:09.660Z,39.62
2023-03-11T05:50:50.386Z,39.99
2023-03-11T05:53:25.728Z,39.53
2023-03-11T05:56:00.438Z,39.94
2023-03-11T05:58:33.558Z,40.46
2023-03-11T06:01:11.300Z,39.95
2023-03-11T06:03:42.673Z,40.02
2023-03-11T06:06:15.945Z,40.70
2023-03-11T06:08:50.799Z,40.25
2023-03-11T06:11:27.891Z,40.58
2023-03-11T06:14:00.006Z,40.65
2023-03-11T06:16:40.809Z,40.67
2023-03-11T06:19:14.036Z,40.75
2023-03-11T06:21:49.114Z,40.22
2023-03-11T06:24:21.040Z,40.04
2023-03-11T06:26:55.471Z,40.38
2023-03-11T06:29:29.932Z,40.49
2023-03-11T06:32:01.182Z,40.09
2023-03-11T06:34:32.779Z,40.52
2023-03-11T06:37:06.970Z,40.39
2023-03-11T06:39:37.456Z,39.64
2023-03-11T06:42:12.309Z,39.92
2023-03-11T06:44:45.312Z,39.96
2023-03-11T06:47:15.960Z,40.74
2023-03-11T06:49:46.908Z,40.72
2023-03-11T06:52:17.507Z,40.17
2023-03-11T06:54:48.185Z,40.49
2023-03-11T06:57:20.689Z,40.55
2023-03-11T06:59:52.690Z,40.89
2023-03-11T07:02:29.067Z,40.99
2023-03-11T07:04:59.595Z,40.58
2023-03-11T07:07:30.506Z,40.56
2023-03-11T07:10:05.147Z,40.79
2023-03-11T07:12:35.636Z,40.10
2023-03-11T07:15:06.729Z,40.30
2023-03-11T07:17:38.319Z,40.53
2023-03-11T07:20:09.632Z,40.40
2023-03-11T07:22:40.796Z,40.49
2023-03-11T07:25:11.958Z,40.74
2023-03-11T07:27:43.025Z,40.32
2023-03-11T07:30:14.549Z,40.41
2023-03-11T07:32:45.203Z,40.03
2023-03-11T07:35:16.672Z,40.33
2023-03-11T07:37:50.058Z,40.42
2023-03-11T07:40:21.637Z,40.32
2023-03-11T07:42:52.794Z,40.19
2023-03-11T07:45:25.034Z,39.77
2023-03-11T07:47:55.667Z,39.95
2023-03-11T07:50:28.382Z,39.69
2023-03-11T07:52:59.355Z,39.89
2023-03-11T07:55:30.752Z,40.15
2023-03-11T07:58:01.949Z,40.26
2023-03-11T08:00:32.915Z,40.46
2023-03-11T08:03:03.823Z,40.70
2023-03-11T08:05:35.765Z,40.78
2023-03-11T08:08:07.072Z,40.71
2023-03-11T08:10:41.202Z,40.71
2023-03-11T08:13:11.808Z,40.24
2023-03-11T08:15:42.490Z,40.68
2023-03-11T08:18:13.881Z,40.66
2023-03-11T08:20:48.146Z,40.95
2023-03-11T08:23:18.810Z,40.70
2023-03-11T08:25:49.232Z,40.72
2023-03-11T08:28:20.022Z,41.22
2023-03-11T08:30:50.884Z,41.60
2023-03-11T08:33:21.479Z,41.35
2023-03-11T08:35:52.326Z,41.19
2023-03-11T08:38:23.021Z,40.81
2023-03-11T08:40:54.064Z,41.29
2023-03-11T08:43:24.966Z,41.32
2023-03-11T08:45:55.826Z,40.97
2023-03-11T08:48:26.543Z,39.75
2023-03-11T08:50:58.304Z,39.34
2023-03-11T08:53:31.007Z,38.49
2023-03-11T08:56:02.397Z,38.92
2023-03-11T08:58:32.956Z,38.90
2023-03-11T09:01:03.586Z,38.37
2023-03-11T09:03:43.122Z,38.60
2023-03-11T09:06:16.405Z,38.35
2023-03-11T09:08:48.753Z,38.58
2023-03-11T09:11:20.000Z,38.33
2023-03-11T09:13:51.307Z,38.06
2023-03-11T09:16:24.300Z,38.53
2023-03-11T09:18:57.500Z,38.08
2023-03-11T09:21:27.901Z,38.11
2023-03-11T09:23:58.621Z,38.16
2023-03-11T09:26:32.052Z,37.74
2023-03-11T09:29:05.880Z,38.21
2023-03-11T09:31:36.537Z,37.84
2023-03-11T09:34:07.668Z,37.74
2023-03-11T09:36:38.520Z,37.34
2023-03-11T09:39:09.686Z,37.41
2023-03-11T09:41:57.845Z,37.74
2023-03-11T09:44:54.925Z,37.90
2023-03-11T09:47:56.872Z,38.04
2023-03-11T09:50:55.789Z,37.98
2023-03-11T09:53:43.264Z,37.77
2023-03-11T09:56:22.951Z,38.08
2023-03-11T09:59:05.671Z,38.44
2023-03-11T10:01:47.215Z,38.33
2023-03-11T10:04:51.738Z,38.79
2023-03-11T10:07:25.667Z,38.50
2023-03-11T10:10:00.445Z,38.50
2023-03-11T10:12:53.949Z,38.65
2023-03-11T10:15:41.047Z,39.11
2023-03-11T10:18:36.148Z,39.02
2023-03-11T10:21:22.100Z,38.71
2023-03-11T10:24:21.097Z,38.99
2023-03-11T10:26:58.256Z,38.91
2023-03-11T10:29:32.565Z,38.61
2023-03-11T10:32:43.588Z,39.08
2023-03-11T10:35:20.155Z,39.26
2023-03-11T10:37:57.377Z,39.31
2023-03-11T10:40:37.869Z,39.07
2023-03-11T10:43:18.172Z,39.58
2023-03-11T10:45:52.028Z,39.34
2023-03-11T10:48:24.055Z,38.97
2023-03-11T10:51:11.408Z,39.60
2023-03-11T10:53:49.719Z,39.40
2023-03-11T10:56:37.125Z,39.55
2023-03-11T10:59:45.810Z,39.47
2023-03-11T11:02:31.161Z,39.17
2023-03-11T11:05:23.586Z,39.66
2023-03-11T11:08:06.702Z,39.62
2023-03-11T11:10:38.500Z,39.56
2023-03-11T11:13:16.069Z,39.58
2023-03-11T11:15:56.221Z,40.28
2023-03-11T11:18:38.686Z,40.38
2023-03-11T11:21:17.894Z,39.82
2023-03-11T11:23:53.869Z,40.03
2023-03-11T11:26:26.807Z,39.91
2023-03-11T11:29:21.584Z,39.76
2023-03-11T11:31:54.893Z,39.56
2023-03-11T11:34:36.384Z,39.94
2023-03-11T11:37:07.449Z,39.62
2023-03-11T11:39:52.648Z,39.42
2023-03-11T11:42:24.972Z,39.44
2023-03-11T11:45:03.801Z,39.84
2023-03-11T11:47:38.607Z,40.30
2023-03-11T11:50:17.481Z,40.08
2023-03-11T11:53:10.869Z,40.05
2023-03-11T11:55:49.260Z,40.23
2023-03-11T11:58:20.390Z,40.00
2023-03-11T12:00:59.875Z,39.86
2023-03-11T12:04:07.755Z,39.79
2023-03-11T12:07:05.741Z,40.03
2023-03-11T12:09:42.744Z,39.54
2023-03-11T12:13:06.713Z,39.87
2023-03-11T12:16:12.297Z,40.05
2023-03-11T12:19:19.080Z,39.64
2023-03-11T12:22:14.183Z,39.63
2023-03-11T12:24:49.672Z,38.81
2023-03-11T12:27:23.022Z,39.69
2023-03-11T12:29:57.324Z,39.84
2023-03-11T12:32:48.782Z,40.19
2023-03-11T12:35:33.636Z,39.61
2023-03-11T12:38:42.900Z,40.20
2023-03-11T12:41:16.728Z,39.21
2023-03-11T12:43:50.428Z,39.84
2023-03-11T12:46:22.725Z,39.93
2023-03-11T12:49:14.659Z,39.84
2023-03-11T12:52:08.742Z,40.34
2023-03-11T12:54:43.734Z,39.89
2023-03-11T12:57:20.429Z,40.16
2023-03-11T13:00:19.154Z,40.07
2023-03-11T13:03:17.110Z,40.77
2023-03-11T13:06:05.438Z,39.50
2023-03-11T13:08:41.574Z,39.68
2023-03-11T13:11:33.361Z,39.58
2023-03-11T13:14:33.760Z,39.75
2023-03-11T13:17:34.321Z,40.32
2023-03-11T13:20:07.833Z,39.91
2023-03-11T13:23:08.924Z,39.57
2023-03-11T13:25:46.293Z,40.20
2023-03-11T13:28:35.701Z,40.23
2023-03-11T13:31:44.442Z,40.23
2023-03-11T13:34:18.515Z,40.24
2023-03-11T13:37:16.410Z,40.68
2023-03-11T13:40:15.012Z,40.88
2023-03-11T13:42:53.585Z,40.00
2023-03-11T13:45:29.939Z,40.81
2023-03-11T13:48:05.088Z,40.61
2023-03-11T13:50:53.721Z,40.18
2023-03-11T13:53:30.976Z,40.63
2023-03-11T13:56:01.870Z,40.55
2023-03-11T13:58:32.811Z,40.51
2023-03-11T14:01:04.205Z,40.72
2023-03-11T14:03:42.169Z,41.25
2023-03-11T14:06:22.462Z,41.22
2023-03-11T14:08:58.350Z,41.11
2023-03-11T14:11:30.505Z,41.14
2023-03-11T14:14:02.770Z,40.66
2023-03-11T14:16:44.958Z,40.88
2023-03-11T14:19:20.034Z,41.04
2023-03-11T14:21:56.412Z,40.74
2023-03-11T14:24:30.202Z,40.83
2023-03-11T14:27:03.315Z,41.34
2023-03-11T14:29:37.171Z,40.83
2023-03-11T14:32:24.619Z,41.05
2023-03-11T14:34:55.550Z,40.75
2023-03-11T14:37:40.182Z,41.19
2023-03-11T14:40:25.570Z,41.15
2023-03-11T14:42:58.688Z,40.83
2023-03-11T14:45:35.613Z,40.89
2023-03-11T14:48:09.565Z,40.71
2023-03-11T14:50:40.767Z,40.71
2023-03-11T14:53:26.464Z,40.72
2023-03-11T14:56:01.110Z,40.85
2023-03-11T14:58:32.052Z,40.90
2023-03-11T15:01:12.249Z,41.41
2023-03-11T15:03:51.788Z,41.31
2023-03-11T15:06:26.133Z,41.06
2023-03-11T15:08:59.376Z,41.37
2023-03-11T15:11:30.402Z,41.35
2023-03-11T15:14:39.072Z,41.73
2023-03-11T15:17:42.919Z,41.70
2023-03-11T15:20:37.207Z,42.02
2023-03-11T15:23:08.713Z,41.57
2023-03-11T15:25:41.730Z,42.00
2023-03-11T15:28:32.761Z,42.77
2023-03-11T15:31:32.712Z,42.29
2023-03-11T15:34:31.852Z,42.43
2023-03-11T15:37:07.210Z,42.34
2023-03-11T15:39:39.203Z,42.38
2023-03-11T15:42:09.780Z,42.22
2023-03-11T15:45:25.129Z,42.42
2023-03-11T15:47:59.329Z,42.55
2023-03-11T15:50:46.623Z,42.58
2023-03-11T15:53:21.102Z,42.35
2023-03-11T15:56:08.152Z,42.53
2023-03-11T15:58:39.483Z,42.59
2023-03-11T16:01:11.329Z,42.83
2023-03-11T16:03:42.409Z,42.31
2023-03-11T16:06:12.982Z,42.60
2023-03-11T16:08:45.842Z,42.50
2023-03-11T16:11:17.164Z,42.73
2023-03-11T16:13:47.761Z,42.31
2023-03-11T16:16:19.551Z,42.59
2023-03-11T16:18:50.011Z,42.52
2023-03-11T16:21:23.132Z,42.54
2023-03-11T16:23:54.274Z,42.77
2023-03-11T16:26:25.048Z,42.73
2023-03-11T16:28:57.326Z,42.57
2023-03-11T16:31:31.057Z,42.56
2023-03-11T16:34:01.799Z,42.79
2023-03-11T16:36:32.172Z,43.09
2023-03-11T16:39:03.740Z,43.14
2023-03-11T16:41:45.413Z,42.84
2023-03-11T16:44:15.932Z,42.93
2023-03-11T16:46:46.298Z,43.40
2023-03-11T16:49:16.902Z,43.41
2023-03-11T16:51:47.631Z,43.24
2023-03-11T16:54:17.999Z,43.53
2023-03-11T16:56:51.141Z,43.77
2023-03-11T16:59:21.554Z,43.60
2023-03-11T17:01:52.289Z,43.58
2023-03-11T17:04:23.481Z,44.07
2023-03-11T17:06:53.837Z,44.09
2023-03-11T17:09:27.670Z,43.88
2023-03-11T17:12:01.311Z,44.34
2023-03-11T17:14:33.231Z,44.25
2023-03-11T17:17:04.197Z,44.23
2023-03-11T17:19:35.253Z,44.36
2023-03-11T17:22:06.288Z,44.79
2023-03-11T17:24:37.925Z,44.56
2023-03-11T17:27:08.565Z,44.37
2023-03-11T17:29:41.779Z,44.76
2023-03-11T17:32:17.103Z,44.75
2023-03-11T17:34:48.984Z,44.63
2023-03-11T17:37:22.642Z,44.78
2023-03-11T17:39:52.979Z,45.04
2023-03-11T17:42:24.136Z,44.75
2023-03-11T17:44:57.574Z,45.04
2023-03-11T17:47:28.182Z,44.67
2023-03-11T17:49:58.774Z,44.86
2023-03-11T17:52:29.487Z,45.05
2023-03-11T17:54:59.823Z,44.91
2023-03-11T17:57:35.391Z,45.13
2023-03-11T18:00:15.340Z,45.08
2023-03-11T18:02:46.885Z,45.34
2023-03-11T18:05:18.755Z,45.12
2023-03-11T18:07:49.319Z,45.58
2023-03-11T18:10:22.418Z,45.55
2023-03-11T18:12:52.774Z,45.25
2023-03-11T18:15:25.363Z,45.66
2023-03-11T18:17:57.998Z,45.48
2023-03-11T18:20:28.793Z,45.58
2023-03-11T18:22:59.418Z,45.79
2023-03-11T18:25:30.003Z,45.82
2023-03-11T18:28:00.276Z,46.16
2023-03-11T18:30:30.932Z,45.89
2023-03-11T18:33:01.238Z,46.03
2023-03-11T18:35:32.102Z,46.37
2023-03-11T18:38:02.815Z,46.57
2023-03-11T18:40:33.119Z,46.53
2023-03-11T18:43:03.777Z,46.58
2023-03-11T18:45:34.174Z,46.78
2023-03-11T18:48:04.815Z,46.68
2023-03-11T18:50:35.344Z,46.82
2023-03-11T18:53:05.699Z,47.13
2023-03-11T18:55:39.501Z,47.19
2023-03-11T18:58:10.684Z,47.31
2023-03-11T19:00:41.058Z,47.10
2023-03-11T19:03:14.649Z,47.54
2023-03-11T19:05:50.829Z,47.06
2023-03-11T19:08:22.135Z,47.11
2023-03-11T19:10:53.121Z,47.25
2023-03-11T19:13:23.662Z,47.20
2023-03-11T19:15:54.577Z,47.74
2023-03-11T19:18:26.166Z,47.48
2023-03-11T19:21:06.800Z,47.49
2023-03-11T19:23:40.188Z,47.99
2023-03-11T19:26:10.585Z,47.85
2023-03-11T19:28:41.017Z,47.93
2023-03-11T19:31:11.563Z,48.00
2023-03-11T19:33:42.209Z,47.96
2023-03-11T19:36:13.385Z,47.82
2023-03-11T19:38:43.775Z,47.88
2023-03-11T19:41:16.710Z,48.00
2023-03-11T19:43:47.839Z,48.09
2023-03-11T19:46:22.381Z,48.37
2023-03-11T19:48:57.473Z,48.24
2023-03-11T19:51:32.930Z,48.29
2023-03-11T19:54:09.920Z,48.33
2023-03-11T19:56:41.279Z,48.08
2023-03-11T19:59:11.878Z,48.57
2023-03-11T20:01:43.236Z,48.31
2023-03-11T20:04:15.958Z,48.55
2023-03-11T20:06:46.784Z,48.39
2023-03-11T20:09:18.648Z,48.39
2023-03-11T20:11:54.156Z,48.57
2023-03-11T20:14:24.962Z,48.59
2023-03-11T20:16:55.325Z,48.95
2023-03-11T20:19:25.749Z,48.61
2023-03-11T20:21:56.564Z,48.63
2023-03-11T20:24:28.078Z,48.55
2023-03-11T20:26:58.448Z,49.00
2023-03-11T20:29:28.916Z,48.67
2023-03-11T20:31:59.610Z,48.76
2023-03-11T20:34:31.235Z,49.29
2023-03-11T20:37:01.796Z,49.25
2023-03-11T20:39:32.110Z,49.10
2023-03-11T20:42:02.742Z,49.19
2023-03-11T20:44:33.543Z,49.27
2023-03-11T20:47:04.027Z,49.12
2023-03-11T20:49:34.637Z,49.40
2023-03-11T20:52:05.041Z,49.28
2023-03-11T20:54:35.614Z,49.44
2023-03-11T20:57:06.768Z,49.70
2023-03-11T20:59:37.134Z,49.48
2023-03-11T21:02:07.996Z,49.42
2023-03-11T21:04:42.144Z,49.33
2023-03-11T21:07:12.650Z,49.79
2023-03-11T21:09:43.564Z,49.43
2023-03-11T21:12:16.720Z,49.86
2023-03-11T21:14:47.637Z,49.63
2023-03-11T21:17:21.190Z,49.53
2023-03-11T21:19:51.566Z,49.46
2023-03-11T21:22:22.115Z,49.47
2023-03-11T21:24:54.618Z,49.85
2023-03-11T21:27:28.428Z,49.92
2023-03-11T21:30:00.995Z,49.59
2023-03-11T21:32:33.257Z,50.03
2023-03-11T21:35:04.824Z,49.48
2023-03-11T21:37:38.549Z,49.79
2023-03-11T21:40:09.841Z,49.77
2023-03-11T21:42:40.341Z,49.53
2023-03-11T21:45:11.309Z,49.88
2023-03-11T21:47:42.014Z,49.82
2023-03-11T21:50:13.168Z,49.99
2023-03-11T21:52:43.829Z,49.88
2023-03-11T21:55:14.800Z,49.64
2023-03-11T21:57:45.725Z,49.80
2023-03-11T22:00:17.025Z,49.95
2023-03-11T22:02:47.613Z,49.97
2023-03-11T22:05:18.481Z,50.14
2023-03-11T22:07:58.896Z,50.08
2023-03-11T22:10:32.425Z,50.02
2023-03-11T22:13:02.873Z,50.08
2023-03-11T22:15:33.775Z,50.07
2023-03-11T22:18:04.637Z,50.53
2023-03-11T22:20:35.101Z,50.28
2023-03-11T22:23:05.753Z,50.42
2023-03-11T22:25:36.254Z,50.71
2023-03-11T22:28:06.975Z,50.94
2023-03-11T22:30:37.253Z,51.03
2023-03-11T22:33:11.082Z,50.82
2023-03-11T22:35:42.422Z,50.96
2023-03-11T22:38:13.053Z,50.79
2023-03-11T22:40:44.003Z,51.20
2023-03-11T22:43:15.108Z,51.22
2023-03-11T22:45:46.790Z,51.32
2023-03-11T22:48:17.318Z,51.24
2023-03-11T22:50:48.128Z,51.58
2023-03-11T22:53:18.433Z,51.07
2023-03-11T22:55:48.919Z,51.33
2023-03-11T22:58:19.305Z,50.90
2023-03-11T23:00:50.303Z,51.17
2023-03-11T23:03:21.171Z,50.99
2023-03-11T23:05:52.058Z,51.03
2023-03-11T23:08:22.739Z,50.90
2023-03-11T23:10:53.555Z,50.77
2023-03-11T23:13:24.141Z,50.82
2023-03-11T23:15:54.483Z,50.93
2023-03-11T23:18:28.309Z,50.64
2023-03-11T23:20:59.251Z,50.56
2023-03-11T23:23:30.115Z,50.89
2023-03-11T23:26:01.039Z,50.83
2023-03-11T23:28:32.091Z,50.50
2023-03-11T23:31:05.959Z,50.58
2023-03-11T23:33:37.037Z,50.57
2023-03-11T23:36:14.093Z,51.22
2023-03-11T23:38:45.853Z,50.86
2023-03-11T23:41:21.164Z,50.83
2023-03-11T23:43:51.727Z,51.07
2023-03-11T23:46:22.508Z,51.10
2023-03-11T23:48:53.096Z,51.07
2023-03-11T23:51:23.688Z,50.95
2023-03-11T23:53:54.361Z,50.75
2023-03-11T23:56:24.682Z,50.37
2023-03-11T23:58:55.141Z,49.93
